sensor_id;sensor_type;location;lat;lon;timestamp;temperature;humidity
76789;DHT22;65740;52.464;13.446;2023-04-01T00:00:28;19.50;48.20
76789;DHT22;65740;52.464;13.446;2023-04-01T00:02:54;19.50;48.30
76789;DHT22;65740;52.464;13.446;2023-04-01T00:05:20;19.40;48.20
76789;DHT22;65740;52.464;13.446;2023-04-01T00:07:46;19.40;48.90
76789;DHT22;65740;52.464;13.446;2023-04-01T00:10:12;19.40;48.30
76789;DHT22;65740;52.464;13.446;2023-04-01T00:12:39;19.40;48.30
76789;DHT22;65740;52.464;13.446;2023-04-01T00:15:07;19.40;48.30
76789;DHT22;65740;52.464;13.446;2023-04-01T00:17:34;19.40;48.30
76789;DHT22;65740;52.464;13.446;2023-04-01T00:20:00;19.40;48.30
76789;DHT22;65740;52.464;13.446;2023-04-01T00:22:26;19.30;48.30
76789;DHT22;65740;52.464;13.446;2023-04-01T00:24:52;19.30;48.30
76789;DHT22;65740;52.464;13.446;2023-04-01T00:27:19;19.30;48.30
76789;DHT22;65740;52.464;13.446;2023-04-01T00:29:46;19.30;48.30
76789;DHT22;65740;52.464;13.446;2023-04-01T00:32:15;19.30;48.30
76789;DHT22;65740;52.464;13.446;2023-04-01T00:34:41;19.30;48.30
76789;DHT22;65740;52.464;13.446;2023-04-01T00:37:07;19.30;48.30
76789;DHT22;65740;52.464;13.446;2023-04-01T00:39:34;19.30;48.30
76789;DHT22;65740;52.464;13.446;2023-04-01T00:42:00;19.20;48.20
76789;DHT22;65740;52.464;13.446;2023-04-01T00:44:31;19.30;48.20
76789;DHT22;65740;52.464;13.446;2023-04-01T00:46:58;19.30;48.20
76789;DHT22;65740;52.464;13.446;2023-04-01T00:49:42;19.30;48.20
76789;DHT22;65740;52.464;13.446;2023-04-01T00:52:13;19.30;48.10
76789;DHT22;65740;52.464;13.446;2023-04-01T00:54:44;19.30;48.00
76789;DHT22;65740;52.464;13.446;2023-04-01T00:57:34;19.30;48.00
76789;DHT22;65740;52.464;13.446;2023-04-01T01:00:03;19.30;47.90
76789;DHT22;65740;52.464;13.446;2023-04-01T01:02:31;19.40;47.90
76789;DHT22;65740;52.464;13.446;2023-04-01T01:04:56;19.40;47.80
76789;DHT22;65740;52.464;13.446;2023-04-01T01:07:50;19.40;47.70
76789;DHT22;65740;52.464;13.446;2023-04-01T01:10:24;19.40;47.70
76789;DHT22;65740;52.464;13.446;2023-04-01T01:12:58;19.40;47.70
76789;DHT22;65740;52.464;13.446;2023-04-01T01:18:11;19.40;47.70
76789;DHT22;65740;52.464;13.446;2023-04-01T01:37:44;19.20;47.70
76789;DHT22;65740;52.464;13.446;2023-04-01T01:40:13;19.20;47.80
76789;DHT22;65740;52.464;13.446;2023-04-01T01:42:46;19.20;47.80
76789;DHT22;65740;52.464;13.446;2023-04-01T01:45:14;19.20;47.80
76789;DHT22;65740;52.464;13.446;2023-04-01T01:47:43;19.20;47.80
76789;DHT22;65740;52.464;13.446;2023-04-01T01:50:11;19.20;47.80
76789;DHT22;65740;52.464;13.446;2023-04-01T01:52:36;19.20;47.90
76789;DHT22;65740;52.464;13.446;2023-04-01T01:55:03;19.20;47.90
76789;DHT22;65740;52.464;13.446;2023-04-01T01:57:32;19.20;47.90
76789;DHT22;65740;52.464;13.446;2023-04-01T02:00:04;19.20;48.50
76789;DHT22;65740;52.464;13.446;2023-04-01T02:02:33;19.20;48.60
76789;DHT22;65740;52.464;13.446;2023-04-01T02:04:58;19.20;47.90
76789;DHT22;65740;52.464;13.446;2023-04-01T02:07:31;19.20;48.60
76789;DHT22;65740;52.464;13.446;2023-04-01T02:09:58;19.10;47.80
76789;DHT22;65740;52.464;13.446;2023-04-01T02:12:24;19.20;47.90
76789;DHT22;65740;52.464;13.446;2023-04-01T02:15:11;19.10;47.80
76789;DHT22;65740;52.464;13.446;2023-04-01T02:17:40;19.20;47.90
76789;DHT22;65740;52.464;13.446;2023-04-01T02:22:50;19.20;47.80
76789;DHT22;65740;52.464;13.446;2023-04-01T02:25:28;19.20;47.70
76789;DHT22;65740;52.464;13.446;2023-04-01T02:27:56;19.20;47.70
76789;DHT22;65740;52.464;13.446;2023-04-01T02:30:23;19.10;47.60
76789;DHT22;65740;52.464;13.446;2023-04-01T02:32:49;19.20;47.60
76789;DHT22;65740;52.464;13.446;2023-04-01T02:35:16;19.20;47.60
76789;DHT22;65740;52.464;13.446;2023-04-01T02:37:43;19.20;47.50
76789;DHT22;65740;52.464;13.446;2023-04-01T02:40:14;19.20;47.50
76789;DHT22;65740;52.464;13.446;2023-04-01T02:42:40;19.20;47.50
76789;DHT22;65740;52.464;13.446;2023-04-01T02:45:07;19.20;47.50
76789;DHT22;65740;52.464;13.446;2023-04-01T02:47:32;19.20;47.50
76789;DHT22;65740;52.464;13.446;2023-04-01T02:49:58;19.20;47.50
76789;DHT22;65740;52.464;13.446;2023-04-01T02:52:30;19.20;47.50
76789;DHT22;65740;52.464;13.446;2023-04-01T02:54:56;19.20;47.50
76789;DHT22;65740;52.464;13.446;2023-04-01T02:57:22;19.20;47.50
76789;DHT22;65740;52.464;13.446;2023-04-01T02:59:48;19.20;47.50
76789;DHT22;65740;52.464;13.446;2023-04-01T03:02:14;19.20;47.50
76789;DHT22;65740;52.464;13.446;2023-04-01T03:04:40;19.20;47.40
76789;DHT22;65740;52.464;13.446;2023-04-01T03:07:05;19.20;47.40
76789;DHT22;65740;52.464;13.446;2023-04-01T03:09:31;19.20;47.40
76789;DHT22;65740;52.464;13.446;2023-04-01T03:11:57;19.20;47.50
76789;DHT22;65740;52.464;13.446;2023-04-01T03:14:22;19.20;47.50
76789;DHT22;65740;52.464;13.446;2023-04-01T03:16:48;19.10;47.50
76789;DHT22;65740;52.464;13.446;2023-04-01T03:19:13;19.10;47.50
76789;DHT22;65740;52.464;13.446;2023-04-01T03:21:40;19.10;47.50
76789;DHT22;65740;52.464;13.446;2023-04-01T03:24:05;19.10;47.50
76789;DHT22;65740;52.464;13.446;2023-04-01T03:26:31;19.10;47.50
76789;DHT22;65740;52.464;13.446;2023-04-01T03:28:57;19.20;47.50
76789;DHT22;65740;52.464;13.446;2023-04-01T03:31:23;19.10;47.40
76789;DHT22;65740;52.464;13.446;2023-04-01T03:33:49;19.20;47.40
76789;DHT22;65740;52.464;13.446;2023-04-01T03:36:14;19.20;47.40
76789;DHT22;65740;52.464;13.446;2023-04-01T03:38:41;19.20;47.30
76789;DHT22;65740;52.464;13.446;2023-04-01T03:41:07;19.20;47.20
76789;DHT22;65740;52.464;13.446;2023-04-01T03:43:36;19.20;47.20
76789;DHT22;65740;52.464;13.446;2023-04-01T03:46:02;19.20;47.10
76789;DHT22;65740;52.464;13.446;2023-04-01T03:48:27;19.20;47.10
76789;DHT22;65740;52.464;13.446;2023-04-01T03:50:53;19.20;47.00
76789;DHT22;65740;52.464;13.446;2023-04-01T03:53:18;19.30;47.10
76789;DHT22;65740;52.464;13.446;2023-04-01T03:55:45;19.20;47.00
76789;DHT22;65740;52.464;13.446;2023-04-01T03:58:10;19.20;47.10
76789;DHT22;65740;52.464;13.446;2023-04-01T04:00:36;19.20;47.10
76789;DHT22;65740;52.464;13.446;2023-04-01T04:03:02;19.20;47.10
76789;DHT22;65740;52.464;13.446;2023-04-01T04:05:28;19.20;47.10
76789;DHT22;65740;52.464;13.446;2023-04-01T04:07:53;19.20;47.20
76789;DHT22;65740;52.464;13.446;2023-04-01T04:10:19;19.10;47.20
76789;DHT22;65740;52.464;13.446;2023-04-01T04:12:45;19.10;47.30
76789;DHT22;65740;52.464;13.446;2023-04-01T04:15:10;19.10;47.30
76789;DHT22;65740;52.464;13.446;2023-04-01T04:17:36;19.10;47.40
76789;DHT22;65740;52.464;13.446;2023-04-01T04:20:02;19.10;47.40
76789;DHT22;65740;52.464;13.446;2023-04-01T04:22:28;19.00;47.40
76789;DHT22;65740;52.464;13.446;2023-04-01T04:24:53;19.00;47.40
76789;DHT22;65740;52.464;13.446;2023-04-01T04:27:20;19.00;47.40
76789;DHT22;65740;52.464;13.446;2023-04-01T04:29:45;19.00;47.50
76789;DHT22;65740;52.464;13.446;2023-04-01T04:32:11;19.00;47.50
76789;DHT22;65740;52.464;13.446;2023-04-01T04:34:37;19.00;47.50
76789;DHT22;65740;52.464;13.446;2023-04-01T04:37:03;19.00;48.20
76789;DHT22;65740;52.464;13.446;2023-04-01T04:39:28;19.00;47.50
76789;DHT22;65740;52.464;13.446;2023-04-01T04:41:54;18.90;47.40
76789;DHT22;65740;52.464;13.446;2023-04-01T04:44:20;19.00;47.50
76789;DHT22;65740;52.464;13.446;2023-04-01T04:46:46;18.90;47.50
76789;DHT22;65740;52.464;13.446;2023-04-01T04:49:11;18.90;47.50
76789;DHT22;65740;52.464;13.446;2023-04-01T04:51:37;18.90;47.50
76789;DHT22;65740;52.464;13.446;2023-04-01T04:54:04;18.90;47.50
76789;DHT22;65740;52.464;13.446;2023-04-01T04:56:30;18.90;48.20
76789;DHT22;65740;52.464;13.446;2023-04-01T04:58:56;18.90;47.50
76789;DHT22;65740;52.464;13.446;2023-04-01T05:01:22;18.90;47.50
76789;DHT22;65740;52.464;13.446;2023-04-01T05:03:48;18.90;47.50
76789;DHT22;65740;52.464;13.446;2023-04-01T05:06:14;18.90;47.50
76789;DHT22;65740;52.464;13.446;2023-04-01T05:08:41;18.90;47.50
76789;DHT22;65740;52.464;13.446;2023-04-01T05:11:17;18.90;47.50
76789;DHT22;65740;52.464;13.446;2023-04-01T05:13:44;18.90;47.40
76789;DHT22;65740;52.464;13.446;2023-04-01T05:16:13;19.00;47.40
76789;DHT22;65740;52.464;13.446;2023-04-01T05:18:39;19.00;47.30
76789;DHT22;65740;52.464;13.446;2023-04-01T05:21:07;19.00;47.20
76789;DHT22;65740;52.464;13.446;2023-04-01T05:23:33;19.00;47.10
76789;DHT22;65740;52.464;13.446;2023-04-01T05:26:06;19.10;47.20
76789;DHT22;65740;52.464;13.446;2023-04-01T05:28:32;19.10;47.00
76789;DHT22;65740;52.464;13.446;2023-04-01T05:30:59;19.10;47.00
76789;DHT22;65740;52.464;13.446;2023-04-01T05:33:26;19.10;46.90
76789;DHT22;65740;52.464;13.446;2023-04-01T05:35:52;19.10;46.80
76789;DHT22;65740;52.464;13.446;2023-04-01T05:38:18;19.20;46.80
76789;DHT22;65740;52.464;13.446;2023-04-01T05:40:43;19.10;46.90
76789;DHT22;65740;52.464;13.446;2023-04-01T05:43:09;19.10;46.90
76789;DHT22;65740;52.464;13.446;2023-04-01T05:45:35;19.10;46.90
76789;DHT22;65740;52.464;13.446;2023-04-01T05:48:01;19.10;46.90
76789;DHT22;65740;52.464;13.446;2023-04-01T05:50:26;19.10;47.00
76789;DHT22;65740;52.464;13.446;2023-04-01T05:52:52;19.10;47.70
76789;DHT22;65740;52.464;13.446;2023-04-01T05:55:18;19.00;47.00
76789;DHT22;65740;52.464;13.446;2023-04-01T05:57:45;19.00;47.10
76789;DHT22;65740;52.464;13.446;2023-04-01T06:00:11;19.00;47.40
76789;DHT22;65740;52.464;13.446;2023-04-01T06:02:38;19.00;47.20
76789;DHT22;65740;52.464;13.446;2023-04-01T06:07:36;19.00;47.20
76789;DHT22;65740;52.464;13.446;2023-04-01T06:10:05;19.00;47.20
76789;DHT22;65740;52.464;13.446;2023-04-01T06:15:13;19.00;47.30
76789;DHT22;65740;52.464;13.446;2023-04-01T06:18:08;18.90;47.20
76789;DHT22;65740;52.464;13.446;2023-04-01T06:23:51;18.90;47.30
76789;DHT22;65740;52.464;13.446;2023-04-01T06:26:24;18.90;47.30
76789;DHT22;65740;52.464;13.446;2023-04-01T06:39:43;18.80;47.30
76789;DHT22;65740;52.464;13.446;2023-04-01T06:42:33;18.90;47.40
76789;DHT22;65740;52.464;13.446;2023-04-01T06:45:39;18.90;47.40
76789;DHT22;65740;52.464;13.446;2023-04-01T06:48:29;18.90;47.30
76789;DHT22;65740;52.464;13.446;2023-04-01T06:51:12;18.90;47.30
76789;DHT22;65740;52.464;13.446;2023-04-01T06:54:04;18.90;47.10
76789;DHT22;65740;52.464;13.446;2023-04-01T06:56:32;18.90;47.10
76789;DHT22;65740;52.464;13.446;2023-04-01T06:59:02;18.90;47.00
76789;DHT22;65740;52.464;13.446;2023-04-01T07:01:37;19.00;47.10
76789;DHT22;65740;52.464;13.446;2023-04-01T07:04:26;18.90;46.90
76789;DHT22;65740;52.464;13.446;2023-04-01T07:09:55;18.90;47.00
76789;DHT22;65740;52.464;13.446;2023-04-01T07:14:58;19.00;47.10
76789;DHT22;65740;52.464;13.446;2023-04-01T07:17:30;18.90;47.00
76789;DHT22;65740;52.464;13.446;2023-04-01T07:20:20;18.90;47.10
76789;DHT22;65740;52.464;13.446;2023-04-01T07:22:49;18.90;47.20
76789;DHT22;65740;52.464;13.446;2023-04-01T07:25:29;18.90;47.20
76789;DHT22;65740;52.464;13.446;2023-04-01T07:28:13;18.90;47.20
76789;DHT22;65740;52.464;13.446;2023-04-01T07:33:44;18.90;47.30
76789;DHT22;65740;52.464;13.446;2023-04-01T07:36:39;18.90;47.20
76789;DHT22;65740;52.464;13.446;2023-04-01T07:44:43;18.90;47.10
76789;DHT22;65740;52.464;13.446;2023-04-01T07:50:08;19.00;47.10
76789;DHT22;65740;52.464;13.446;2023-04-01T08:03:45;19.10;47.50
76789;DHT22;65740;52.464;13.446;2023-04-01T08:06:34;19.10;46.80
76789;DHT22;65740;52.464;13.446;2023-04-01T08:09:20;19.10;46.80
76789;DHT22;65740;52.464;13.446;2023-04-01T08:15:01;19.10;46.70
76789;DHT22;65740;52.464;13.446;2023-04-01T08:17:45;19.20;46.80
76789;DHT22;65740;52.464;13.446;2023-04-01T08:23:15;19.10;46.70
76789;DHT22;65740;52.464;13.446;2023-04-01T08:29:27;19.20;46.90
76789;DHT22;65740;52.464;13.446;2023-04-01T08:32:16;19.10;46.90
76789;DHT22;65740;52.464;13.446;2023-04-01T08:34:47;19.10;46.90
76789;DHT22;65740;52.464;13.446;2023-04-01T08:37:28;19.10;47.00
76789;DHT22;65740;52.464;13.446;2023-04-01T08:39:58;19.10;47.00
76789;DHT22;65740;52.464;13.446;2023-04-01T08:48:23;19.00;47.20
76789;DHT22;65740;52.464;13.446;2023-04-01T08:56:36;19.00;47.30
76789;DHT22;65740;52.464;13.446;2023-04-01T09:16:58;19.00;47.50
76789;DHT22;65740;52.464;13.446;2023-04-01T09:25:46;19.00;47.30
76789;DHT22;65740;52.464;13.446;2023-04-01T09:28:20;19.10;47.40
76789;DHT22;65740;52.464;13.446;2023-04-01T09:46:10;19.30;47.00
76789;DHT22;65740;52.464;13.446;2023-04-01T09:52:05;19.30;47.10
76789;DHT22;65740;52.464;13.446;2023-04-01T09:54:54;19.30;47.10
76789;DHT22;65740;52.464;13.446;2023-04-01T10:12:29;19.20;47.40
76789;DHT22;65740;52.464;13.446;2023-04-01T11:09:36;19.10;47.70
76789;DHT22;65740;52.464;13.446;2023-04-01T11:12:37;19.20;47.70
76789;DHT22;65740;52.464;13.446;2023-04-01T11:23:29;19.20;47.60
76789;DHT22;65740;52.464;13.446;2023-04-01T11:26:02;19.20;47.60
76789;DHT22;65740;52.464;13.446;2023-04-01T11:33:54;19.20;47.60
76789;DHT22;65740;52.464;13.446;2023-04-01T11:44:46;19.20;47.80
76789;DHT22;65740;52.464;13.446;2023-04-01T12:09:29;19.10;47.90
76789;DHT22;65740;52.464;13.446;2023-04-01T12:17:53;19.20;47.80
76789;DHT22;65740;52.464;13.446;2023-04-01T12:20:52;19.20;47.80
76789;DHT22;65740;52.464;13.446;2023-04-01T12:23:32;19.30;47.80
76789;DHT22;65740;52.464;13.446;2023-04-01T12:29:05;19.30;47.60
76789;DHT22;65740;52.464;13.446;2023-04-01T12:34:55;19.30;47.60
76789;DHT22;65740;52.464;13.446;2023-04-01T12:42:59;19.30;47.60
76789;DHT22;65740;52.464;13.446;2023-04-01T12:45:34;19.30;47.60
76789;DHT22;65740;52.464;13.446;2023-04-01T12:48:18;19.30;47.60
76789;DHT22;65740;52.464;13.446;2023-04-01T13:02:00;19.30;47.80
76789;DHT22;65740;52.464;13.446;2023-04-01T13:04:44;19.30;47.80
76789;DHT22;65740;52.464;13.446;2023-04-01T13:15:35;19.20;48.00
76789;DHT22;65740;52.464;13.446;2023-04-01T13:18:10;19.10;48.00
76789;DHT22;65740;52.464;13.446;2023-04-01T13:28:40;19.10;48.20
76789;DHT22;65740;52.464;13.446;2023-04-01T13:37:02;19.00;48.10
76789;DHT22;65740;52.464;13.446;2023-04-01T13:45:15;19.10;48.20
76789;DHT22;65740;52.464;13.446;2023-04-01T13:50:49;19.10;48.10
76789;DHT22;65740;52.464;13.446;2023-04-01T13:59:11;19.20;47.80
76789;DHT22;65740;52.464;13.446;2023-04-01T14:05:12;19.20;47.60
76789;DHT22;65740;52.464;13.446;2023-04-01T14:08:09;19.30;47.70
76789;DHT22;65740;52.464;13.446;2023-04-01T14:13:56;19.30;47.50
76789;DHT22;65740;52.464;13.446;2023-04-01T14:33:21;19.30;47.30
76789;DHT22;65740;52.464;13.446;2023-04-01T14:44:15;19.30;47.40
76789;DHT22;65740;52.464;13.446;2023-04-01T14:49:42;19.20;47.60
76789;DHT22;65740;52.464;13.446;2023-04-01T14:54:46;19.10;47.60
76789;DHT22;65740;52.464;13.446;2023-04-01T14:57:22;19.20;47.70
76789;DHT22;65740;52.464;13.446;2023-04-01T14:59:59;19.10;47.60
76789;DHT22;65740;52.464;13.446;2023-04-01T15:08:21;19.10;47.70
76789;DHT22;65740;52.464;13.446;2023-04-01T15:10:59;19.10;47.80
76789;DHT22;65740;52.464;13.446;2023-04-01T15:13:33;19.10;47.80
76789;DHT22;65740;52.464;13.446;2023-04-01T15:16:17;19.10;47.90
76789;DHT22;65740;52.464;13.446;2023-04-01T15:24:26;19.00;47.90
76789;DHT22;65740;52.464;13.446;2023-04-01T15:32:25;19.00;47.70
76789;DHT22;65740;52.464;13.446;2023-04-01T15:40:32;19.00;47.70
76789;DHT22;65740;52.464;13.446;2023-04-01T15:43:36;19.00;47.70
76789;DHT22;65740;52.464;13.446;2023-04-01T15:57:46;19.00;47.50
76789;DHT22;65740;52.464;13.446;2023-04-01T16:07:02;19.10;47.40
76789;DHT22;65740;52.464;13.446;2023-04-01T16:15:24;19.20;47.40
76789;DHT22;65740;52.464;13.446;2023-04-01T16:25:49;19.10;47.50
76789;DHT22;65740;52.464;13.446;2023-04-01T16:28:38;19.10;47.50
76789;DHT22;65740;52.464;13.446;2023-04-01T16:31:31;19.10;47.50
76789;DHT22;65740;52.464;13.446;2023-04-01T16:34:07;19.00;47.50
76789;DHT22;65740;52.464;13.446;2023-04-01T16:42:16;19.00;47.50
76789;DHT22;65740;52.464;13.446;2023-04-01T16:44:50;19.00;47.60
76789;DHT22;65740;52.464;13.446;2023-04-01T16:47:27;18.90;47.50
76789;DHT22;65740;52.464;13.446;2023-04-01T16:50:19;18.90;47.60
76789;DHT22;65740;52.464;13.446;2023-04-01T16:52:57;18.90;47.60
76789;DHT22;65740;52.464;13.446;2023-04-01T16:58:23;18.90;47.60
76789;DHT22;65740;52.464;13.446;2023-04-01T17:00:51;18.90;47.60
76789;DHT22;65740;52.464;13.446;2023-04-01T17:03:32;18.90;47.50
76789;DHT22;65740;52.464;13.446;2023-04-01T17:06:11;18.90;47.60
76789;DHT22;65740;52.464;13.446;2023-04-01T17:16:46;18.80;47.40
76789;DHT22;65740;52.464;13.446;2023-04-01T17:19:49;18.90;47.50
76789;DHT22;65740;52.464;13.446;2023-04-01T17:27:48;18.90;47.30
76789;DHT22;65740;52.464;13.446;2023-04-01T17:33:25;18.90;47.30
76789;DHT22;65740;52.464;13.446;2023-04-01T17:46:55;18.90;47.10
76789;DHT22;65740;52.464;13.446;2023-04-01T17:52:46;18.90;47.10
76789;DHT22;65740;52.464;13.446;2023-04-01T18:03:38;18.90;47.10
76789;DHT22;65740;52.464;13.446;2023-04-01T18:06:20;18.80;47.00
76789;DHT22;65740;52.464;13.446;2023-04-01T18:12:01;18.80;47.00
76789;DHT22;65740;52.464;13.446;2023-04-01T18:20:20;18.80;47.00
76789;DHT22;65740;52.464;13.446;2023-04-01T18:23:02;18.80;47.00
76789;DHT22;65740;52.464;13.446;2023-04-01T18:25:39;18.80;46.90
76789;DHT22;65740;52.464;13.446;2023-04-01T18:33:41;18.80;46.90
76789;DHT22;65740;52.464;13.446;2023-04-01T18:36:16;18.70;46.90
76789;DHT22;65740;52.464;13.446;2023-04-01T18:39:11;18.70;46.90
76789;DHT22;65740;52.464;13.446;2023-04-01T18:42:00;18.80;46.90
76789;DHT22;65740;52.464;13.446;2023-04-01T18:44:47;18.70;46.80
76789;DHT22;65740;52.464;13.446;2023-04-01T18:55:51;18.70;46.80
76789;DHT22;65740;52.464;13.446;2023-04-01T18:58:34;18.70;46.70
76789;DHT22;65740;52.464;13.446;2023-04-01T19:01:16;18.70;46.70
76789;DHT22;65740;52.464;13.446;2023-04-01T19:06:45;18.70;46.50
76789;DHT22;65740;52.464;13.446;2023-04-01T19:09:19;18.70;46.50
76789;DHT22;65740;52.464;13.446;2023-04-01T19:34:02;18.70;46.40
76789;DHT22;65740;52.464;13.446;2023-04-01T19:36:52;18.70;46.40
76789;DHT22;65740;52.464;13.446;2023-04-01T19:45:06;18.50;46.30
76789;DHT22;65740;52.464;13.446;2023-04-01T19:48:41;18.60;46.40
76789;DHT22;65740;52.464;13.446;2023-04-01T19:50:52;18.60;46.40
76789;DHT22;65740;52.464;13.446;2023-04-01T19:53:28;18.50;46.30
76789;DHT22;65740;52.464;13.446;2023-04-01T19:56:02;18.50;46.30
76789;DHT22;65740;52.464;13.446;2023-04-01T20:01:04;18.60;46.20
76789;DHT22;65740;52.464;13.446;2023-04-01T20:12:06;18.70;45.60
76789;DHT22;65740;52.464;13.446;2023-04-01T20:14:43;18.70;45.50
76789;DHT22;65740;52.464;13.446;2023-04-01T20:25:32;18.80;45.60
76789;DHT22;65740;52.464;13.446;2023-04-01T20:28:14;18.80;45.60
76789;DHT22;65740;52.464;13.446;2023-04-01T20:50:19;18.50;45.50
76789;DHT22;65740;52.464;13.446;2023-04-01T20:53:08;18.50;45.60
76789;DHT22;65740;52.464;13.446;2023-04-01T21:03:41;18.40;45.90
76789;DHT22;65740;52.464;13.446;2023-04-01T21:06:43;18.40;45.90
76789;DHT22;65740;52.464;13.446;2023-04-01T21:09:29;18.30;45.70
76789;DHT22;65740;52.464;13.446;2023-04-01T21:20:31;18.40;45.40
76789;DHT22;65740;52.464;13.446;2023-04-01T21:29:11;18.40;45.30
76789;DHT22;65740;52.464;13.446;2023-04-01T21:34:50;18.50;45.30
76789;DHT22;65740;52.464;13.446;2023-04-01T21:42:41;18.50;45.40
76789;DHT22;65740;52.464;13.446;2023-04-01T21:48:11;18.60;45.40
76789;DHT22;65740;52.464;13.446;2023-04-01T21:51:16;18.60;45.40
76789;DHT22;65740;52.464;13.446;2023-04-01T21:54:13;18.60;45.50
76789;DHT22;65740;52.464;13.446;2023-04-01T21:57:34;18.60;45.40
76789;DHT22;65740;52.464;13.446;2023-04-01T22:05:59;18.50;45.30
76789;DHT22;65740;52.464;13.446;2023-04-01T22:08:59;18.50;45.30
76789;DHT22;65740;52.464;13.446;2023-04-01T22:12:03;18.50;45.30
76789;DHT22;65740;52.464;13.446;2023-04-01T22:19:39;18.40;45.30
76789;DHT22;65740;52.464;13.446;2023-04-01T22:22:16;18.30;45.20
76789;DHT22;65740;52.464;13.446;2023-04-01T22:24:50;18.30;45.20
76789;DHT22;65740;52.464;13.446;2023-04-01T22:27:25;18.30;45.20
76789;DHT22;65740;52.464;13.446;2023-04-01T22:32:32;18.30;45.20
76789;DHT22;65740;52.464;13.446;2023-04-01T22:43:11;18.20;45.10
76789;DHT22;65740;52.464;13.446;2023-04-01T22:51:07;18.20;45.10
76789;DHT22;65740;52.464;13.446;2023-04-01T22:59:08;18.20;45.10
76789;DHT22;65740;52.464;13.446;2023-04-01T23:01:41;18.20;45.10
76789;DHT22;65740;52.464;13.446;2023-04-01T23:04:10;18.30;45.20
76789;DHT22;65740;52.464;13.446;2023-04-01T23:06:41;18.30;45.20
76789;DHT22;65740;52.464;13.446;2023-04-01T23:09:31;18.30;45.10
76789;DHT22;65740;52.464;13.446;2023-04-01T23:12:00;18.20;44.90
76789;DHT22;65740;52.464;13.446;2023-04-01T23:14:39;18.30;44.90
76789;DHT22;65740;52.464;13.446;2023-04-01T23:20:31;18.30;44.70
76789;DHT22;65740;52.464;13.446;2023-04-01T23:33:30;18.30;44.60
76789;DHT22;65740;52.464;13.446;2023-04-01T23:36:02;18.20;44.50
76789;DHT22;65740;52.464;13.446;2023-04-01T23:38:40;18.20;44.50
76789;DHT22;65740;52.464;13.446;2023-04-01T23:41:09;18.20;44.60
76789;DHT22;65740;52.464;13.446;2023-04-01T23:43:43;18.20;44.50
76789;DHT22;65740;52.464;13.446;2023-04-01T23:46:09;18.20;44.40
76789;DHT22;65740;52.464;13.446;2023-04-01T23:48:41;18.20;44.40
76789;DHT22;65740;52.464;13.446;2023-04-01T23:51:29;18.20;44.30
76789;DHT22;65740;52.464;13.446;2023-04-01T23:54:04;18.20;44.30
76789;DHT22;65740;52.464;13.446;2023-04-01T23:56:42;18.20;44.20
76789;DHT22;65740;52.464;13.446;2023-04-01T23:59:16;18.20;44.10
